createdAt,value
2023-02-12T00:01:09.511Z,84.48
2023-02-12T00:03:37.866Z,83.92
2023-02-12T00:06:06.115Z,85.01
2023-02-12T00:08:33.765Z,85.59
2023-02-12T00:11:11.306Z,85.98
2023-02-12T00:13:38.967Z,85.22
2023-02-12T00:16:07.898Z,86.04
2023-02-12T00:18:35.756Z,86.04
2023-02-12T00:21:03.365Z,86.38
2023-02-12T00:23:30.698Z,85.98
2023-02-12T00:25:58.020Z,86.12
2023-02-12T00:28:25.797Z,86.58
2023-02-12T00:30:53.255Z,86.90
2023-02-12T00:33:20.884Z,86.84
2023-02-12T00:35:56.540Z,86.24
2023-02-12T00:38:24.138Z,85.84
2023-02-12T00:40:51.411Z,86.43
2023-02-12T00:43:18.725Z,86.67
2023-02-12T00:45:46.782Z,86.37
2023-02-12T00:48:14.903Z,86.72
2023-02-12T00:50:45.503Z,85.85
2023-02-12T00:53:12.723Z,86.49
2023-02-12T00:55:40.377Z,86.55
2023-02-12T00:58:07.755Z,86.80
2023-02-12T01:00:35.223Z,87.12
2023-02-12T01:03:04.288Z,87.02
2023-02-12T01:05:33.273Z,88.36
2023-02-12T01:08:00.877Z,88.47
2023-02-12T01:10:28.500Z,88.51
2023-02-12T01:12:55.965Z,88.77
2023-02-12T01:15:23.964Z,88.49
2023-02-12T01:17:53.252Z,89.54
2023-02-12T01:20:23.175Z,88.47
2023-02-12T01:22:51.082Z,88.54
2023-02-12T01:25:20.530Z,87.85
2023-02-12T01:27:48.827Z,88.26
2023-02-12T01:30:16.527Z,87.90
2023-02-12T01:32:44.177Z,87.66
2023-02-12T01:35:11.891Z,88.42
2023-02-12T01:37:41.442Z,87.48
2023-02-12T01:40:11.847Z,87.42
2023-02-12T01:42:40.383Z,86.86
2023-02-12T01:45:13.595Z,87.05
2023-02-12T01:47:42.652Z,86.74
2023-02-12T01:50:15.843Z,87.39
2023-02-12T01:52:47.771Z,87.56
2023-02-12T01:55:15.788Z,87.65
2023-02-12T01:57:45.423Z,87.19
2023-02-12T02:00:19.708Z,87.31
2023-02-12T02:02:51.762Z,87.21
2023-02-12T02:05:43.776Z,87.31
2023-02-12T02:08:11.938Z,86.76
2023-02-12T02:10:39.311Z,85.67
2023-02-12T02:13:25.661Z,85.49
2023-02-12T02:15:57.910Z,84.50
2023-02-12T02:18:44.936Z,83.65
2023-02-12T02:21:31.151Z,82.58
2023-02-12T02:24:32.824Z,82.80
2023-02-12T02:27:16.003Z,81.80
2023-02-12T02:29:52.361Z,81.41
2023-02-12T02:32:30.140Z,81.67
2023-02-12T02:35:11.371Z,81.48
2023-02-12T02:38:09.044Z,82.15
2023-02-12T02:40:44.870Z,82.07
2023-02-12T02:43:23.708Z,81.49
2023-02-12T02:46:06.254Z,80.21
2023-02-12T02:48:40.826Z,80.01
2023-02-12T02:51:12.442Z,80.43
2023-02-12T02:53:47.487Z,80.39
2023-02-12T02:56:18.223Z,80.38
2023-02-12T02:58:54.133Z,79.94
2023-02-12T03:01:29.758Z,80.20
2023-02-12T03:04:04.175Z,79.98
2023-02-12T03:06:40.670Z,79.90
2023-02-12T03:09:43.020Z,79.19
2023-02-12T03:12:14.593Z,78.77
2023-02-12T03:14:47.810Z,78.78
2023-02-12T03:17:25.031Z,79.70
2023-02-12T03:19:59.042Z,78.94
2023-02-12T03:22:33.409Z,80.11
2023-02-12T03:25:09.659Z,79.61
2023-02-12T03:27:39.860Z,78.22
2023-02-12T03:30:08.165Z,78.94
2023-02-12T03:32:49.847Z,78.44
2023-02-12T03:35:23.244Z,77.77
2023-02-12T03:38:12.197Z,78.07
2023-02-12T03:40:43.267Z,78.88
2023-02-12T03:43:21.312Z,78.30
2023-02-12T03:46:01.817Z,79.11
2023-02-12T03:49:01.136Z,78.38
2023-02-12T03:51:40.911Z,78.94
2023-02-12T03:54:09.770Z,79.51
2023-02-12T03:56:43.624Z,79.40
2023-02-12T03:59:12.149Z,78.81
2023-02-12T04:01:39.591Z,79.07
2023-02-12T04:04:08.370Z,78.15
2023-02-12T04:06:36.301Z,77.90
2023-02-12T04:09:06.714Z,77.42
2023-02-12T04:11:52.750Z,78.00
2023-02-12T04:14:57.429Z,78.88
2023-02-12T04:17:38.809Z,78.85
2023-02-12T04:20:12.202Z,78.72
2023-02-12T04:23:00.611Z,78.99
2023-02-12T04:25:58.453Z,79.61
2023-02-12T04:28:30.312Z,79.67
2023-02-12T04:31:03.634Z,79.57
2023-02-12T04:33:58.545Z,79.50
2023-02-12T04:36:30.197Z,79.79
2023-02-12T04:39:08.113Z,78.81
2023-02-12T04:41:35.565Z,78.21
2023-02-12T04:44:23.070Z,78.81
2023-02-12T04:46:51.163Z,78.96
2023-02-12T04:49:20.772Z,78.93
2023-02-12T04:51:49.170Z,79.06
2023-02-12T04:54:17.964Z,78.64
2023-02-12T04:56:46.027Z,78.75
2023-02-12T04:59:13.438Z,78.91
2023-02-12T05:01:41.690Z,78.99
2023-02-12T05:04:11.152Z,78.42
2023-02-12T05:06:39.257Z,78.75
2023-02-12T05:09:07.416Z,78.25
2023-02-12T05:11:34.885Z,78.84
2023-02-12T05:14:02.130Z,79.14
2023-02-12T05:16:29.479Z,79.39
2023-02-12T05:18:57.035Z,78.17
2023-02-12T05:21:24.351Z,78.40
2023-02-12T05:23:51.626Z,78.87
2023-02-12T05:26:21.402Z,78.73
2023-02-12T05:28:48.931Z,79.05
2023-02-12T05:31:21.024Z,79.02
2023-02-12T05:33:49.127Z,78.99
2023-02-12T05:36:19.114Z,79.15
2023-02-12T05:38:46.795Z,79.11
2023-02-12T05:41:17.155Z,79.01
2023-02-12T05:43:46.591Z,80.16
2023-02-12T05:46:16.280Z,79.42
2023-02-12T05:48:43.619Z,78.64
2023-02-12T05:51:13.868Z,79.07
2023-02-12T05:53:41.774Z,78.27
2023-02-12T05:56:20.527Z,79.22
2023-02-12T05:58:52.451Z,79.58
2023-02-12T06:01:22.730Z,78.71
2023-02-12T06:03:50.118Z,79.23
2023-02-12T06:06:17.588Z,79.11
2023-02-12T06:08:48.125Z,78.07
2023-02-12T06:11:16.556Z,77.86
2023-02-12T06:13:44.219Z,78.93
2023-02-12T06:16:20.103Z,79.09
2023-02-12T06:18:47.633Z,78.16
2023-02-12T06:21:15.748Z,78.50
2023-02-12T06:23:43.368Z,78.99
2023-02-12T06:26:11.305Z,78.99
2023-02-12T06:28:38.746Z,78.85
2023-02-12T06:31:06.480Z,78.91
2023-02-12T06:33:35.637Z,79.34
2023-02-12T06:36:04.593Z,80.00
2023-02-12T06:38:35.002Z,79.85
2023-02-12T06:41:03.085Z,79.05
2023-02-12T06:43:30.748Z,79.70
2023-02-12T06:46:01.219Z,79.66
2023-02-12T06:48:28.929Z,79.93
2023-02-12T06:50:56.289Z,80.25
2023-02-12T06:53:23.518Z,79.42
2023-02-12T06:55:50.854Z,79.53
2023-02-12T06:58:18.255Z,79.21
2023-02-12T07:00:45.949Z,78.97
2023-02-12T07:03:13.413Z,78.35
2023-02-12T07:05:40.993Z,78.29
2023-02-12T07:08:08.285Z,79.37
2023-02-12T07:10:35.655Z,79.16
2023-02-12T07:13:03.913Z,79.47
2023-02-12T07:15:31.251Z,79.25
2023-02-12T07:17:58.519Z,78.92
2023-02-12T07:20:25.793Z,78.60
2023-02-12T07:22:53.077Z,78.84
2023-02-12T07:25:20.326Z,78.95
2023-02-12T07:27:47.668Z,79.05
2023-02-12T07:30:15.290Z,78.59
2023-02-12T07:32:42.625Z,78.36
2023-02-12T07:35:10.013Z,78.82
2023-02-12T07:37:37.501Z,77.90
2023-02-12T07:40:05.324Z,78.47
2023-02-12T07:42:32.823Z,77.51
2023-02-12T07:45:06.633Z,77.62
2023-02-12T07:47:35.789Z,77.07
2023-02-12T07:50:03.040Z,78.33
2023-02-12T07:52:30.370Z,78.31
2023-02-12T07:54:57.562Z,76.87
2023-02-12T07:57:25.172Z,75.96
2023-02-12T07:59:54.877Z,75.19
2023-02-12T08:02:25.613Z,75.82
2023-02-12T08:04:59.342Z,74.95
2023-02-12T08:07:26.744Z,75.51
2023-02-12T08:09:54.024Z,76.08
2023-02-12T08:12:21.517Z,76.32
2023-02-12T08:14:48.992Z,75.90
2023-02-12T08:17:16.277Z,75.39
2023-02-12T08:19:43.663Z,75.40
2023-02-12T08:22:10.934Z,75.18
2023-02-12T08:24:38.401Z,74.33
2023-02-12T08:27:05.667Z,74.85
2023-02-12T08:29:33.040Z,75.96
2023-02-12T08:32:02.829Z,75.77
2023-02-12T08:34:33.324Z,74.97
2023-02-12T08:37:01.622Z,75.33
2023-02-12T08:39:30.046Z,74.49
2023-02-12T08:41:58.631Z,74.91
2023-02-12T08:44:25.871Z,74.75
2023-02-12T08:46:53.584Z,74.37
2023-02-12T08:49:23.759Z,73.61
2023-02-12T08:51:53.242Z,73.24
2023-02-12T08:54:26.132Z,73.74
2023-02-12T08:56:58.257Z,74.37
2023-02-12T08:59:25.656Z,73.90
2023-02-12T09:01:53.315Z,74.96
2023-02-12T09:04:25.658Z,75.23
2023-02-12T09:06:53.521Z,74.31
2023-02-12T09:09:20.851Z,73.80
2023-02-12T09:11:48.497Z,73.69
2023-02-12T09:14:17.118Z,73.63
2023-02-12T09:16:44.975Z,73.47
2023-02-12T09:19:13.830Z,72.62
2023-02-12T09:21:41.901Z,72.69
2023-02-12T09:24:10.098Z,72.15
2023-02-12T09:26:37.631Z,72.05
2023-02-12T09:29:05.340Z,73.08
2023-02-12T09:31:33.379Z,73.00
2023-02-12T09:34:03.586Z,73.21
2023-02-12T09:36:31.261Z,73.77
2023-02-12T09:38:59.548Z,73.06
2023-02-12T09:41:44.086Z,72.92
2023-02-12T09:44:39.321Z,72.08
2023-02-12T09:47:12.737Z,73.17
2023-02-12T09:49:52.131Z,73.73
2023-02-12T09:52:23.515Z,73.74
2023-02-12T09:54:51.031Z,73.96
2023-02-12T09:57:25.779Z,74.17
2023-02-12T10:00:00.166Z,73.98
2023-02-12T10:02:27.650Z,74.20
2023-02-12T10:05:01.601Z,74.20
2023-02-12T10:07:58.517Z,74.02
2023-02-12T10:11:11.002Z,74.46
2023-02-12T10:14:02.744Z,74.11
2023-02-12T10:16:30.544Z,73.96
2023-02-12T10:18:59.345Z,80.45
2023-02-12T10:21:38.932Z,67.76
2023-02-12T10:24:38.283Z,71.08
2023-02-12T10:27:13.126Z,72.06
2023-02-12T10:29:44.623Z,72.67
2023-02-12T10:32:33.428Z,72.44
2023-02-12T10:35:00.671Z,72.74
2023-02-12T10:37:34.012Z,73.46
2023-02-12T10:40:28.430Z,73.71
2023-02-12T10:43:00.143Z,73.00
2023-02-12T10:45:39.897Z,72.68
2023-02-12T10:48:11.670Z,72.24
2023-02-12T10:51:09.924Z,71.58
2023-02-12T10:53:45.439Z,71.33
2023-02-12T10:56:12.975Z,71.66
2023-02-12T10:58:42.650Z,71.72
2023-02-12T11:01:29.896Z,71.12
2023-02-12T11:03:58.862Z,70.05
2023-02-12T11:06:29.012Z,69.69
2023-02-12T11:08:56.515Z,69.91
2023-02-12T11:11:27.429Z,69.56
2023-02-12T11:13:56.932Z,69.72
2023-02-12T11:16:32.234Z,69.40
2023-02-12T11:19:06.723Z,69.42
2023-02-12T11:21:37.020Z,69.72
2023-02-12T11:24:26.307Z,70.25
2023-02-12T11:27:12.257Z,70.82
2023-02-12T11:29:39.987Z,70.66
2023-02-12T11:32:09.388Z,70.73
2023-02-12T11:34:36.826Z,70.40
2023-02-12T11:37:05.196Z,69.86
2023-02-12T11:39:35.030Z,69.94
2023-02-12T11:42:05.265Z,69.73
2023-02-12T11:44:36.382Z,70.29
2023-02-12T11:47:12.127Z,69.84
2023-02-12T11:49:44.237Z,69.55
2023-02-12T11:52:22.394Z,69.65
2023-02-12T11:54:51.707Z,69.57
2023-02-12T11:57:43.436Z,69.67
2023-02-12T12:00:28.438Z,70.51
2023-02-12T12:03:06.776Z,70.51
2023-02-12T12:05:40.743Z,70.14
2023-02-12T12:08:15.988Z,69.46
2023-02-12T12:11:01.013Z,70.23
2023-02-12T12:13:34.048Z,70.50
2023-02-12T12:16:33.559Z,70.45
2023-02-12T12:19:29.167Z,70.02
2023-02-12T12:22:34.497Z,69.63
2023-02-12T12:25:32.184Z,70.07
2023-02-12T12:28:26.785Z,69.63
2023-02-12T12:30:59.963Z,69.62
2023-02-12T12:33:57.118Z,68.99
2023-02-12T12:36:43.155Z,69.83
2023-02-12T12:39:32.609Z,70.07
2023-02-12T12:42:25.745Z,70.26
2023-02-12T12:45:13.418Z,70.18
2023-02-12T12:48:04.405Z,70.17
2023-02-12T12:50:52.738Z,69.83
2023-02-12T12:53:38.115Z,69.97
2023-02-12T12:56:30.851Z,70.22
2023-02-12T12:59:23.579Z,69.74
2023-02-12T13:02:32.763Z,69.87
2023-02-12T13:05:03.594Z,70.10
2023-02-12T13:08:13.236Z,69.70
2023-02-12T13:10:58.302Z,69.52
2023-02-12T13:13:34.224Z,70.39
2023-02-12T13:16:11.495Z,70.82
2023-02-12T13:18:44.830Z,70.67
2023-02-12T13:21:30.263Z,69.97
2023-02-12T13:24:04.104Z,69.76
2023-02-12T13:26:37.642Z,70.04
2023-02-12T13:29:19.286Z,70.04
2023-02-12T13:31:55.068Z,70.06
2023-02-12T13:34:23.074Z,69.92
2023-02-12T13:36:50.544Z,69.76
2023-02-12T13:39:35.275Z,69.60
2023-02-12T13:42:08.937Z,69.44
2023-02-12T13:44:51.037Z,68.95
2023-02-12T13:47:52.145Z,68.32
2023-02-12T13:50:34.540Z,69.56
2023-02-12T13:53:13.719Z,70.50
2023-02-12T13:56:16.412Z,70.25
2023-02-12T13:58:52.183Z,69.71
2023-02-12T14:01:41.881Z,68.64
2023-02-12T14:04:29.487Z,68.25
2023-02-12T14:07:03.027Z,68.39
2023-02-12T14:09:37.827Z,68.68
2023-02-12T14:12:09.447Z,68.84
2023-02-12T14:14:43.177Z,68.83
2023-02-12T14:17:28.953Z,68.22
2023-02-12T14:20:15.082Z,68.33
2023-02-12T14:22:42.363Z,68.58
2023-02-12T14:25:24.714Z,68.09
2023-02-12T14:28:00.664Z,67.34
2023-02-12T14:30:40.169Z,67.19
2023-02-12T14:33:07.802Z,67.07
2023-02-12T14:35:46.345Z,66.51
2023-02-12T14:38:16.617Z,67.06
2023-02-12T14:40:51.285Z,67.10
2023-02-12T14:43:31.264Z,66.35
2023-02-12T14:46:23.749Z,66.87
2023-02-12T14:48:54.634Z,67.69
2023-02-12T14:51:35.590Z,67.24
2023-02-12T14:54:05.013Z,67.74
2023-02-12T14:56:40.115Z,67.67
2023-02-12T14:59:15.357Z,67.28
2023-02-12T15:01:43.541Z,67.40
2023-02-12T15:04:16.724Z,66.93
2023-02-12T15:06:59.744Z,67.23
2023-02-12T15:09:32.351Z,67.58
2023-02-12T15:12:26.814Z,66.32
2023-02-12T15:15:06.141Z,66.80
2023-02-12T15:17:35.778Z,66.24
2023-02-12T15:20:06.889Z,66.04
2023-02-12T15:22:40.312Z,65.92
2023-02-12T15:25:24.425Z,65.70
2023-02-12T15:28:00.798Z,65.62
2023-02-12T15:30:32.267Z,65.25
2023-02-12T15:33:07.067Z,65.30
2023-02-12T15:35:36.356Z,64.34
2023-02-12T15:38:07.515Z,64.31
2023-02-12T15:40:35.068Z,64.66
2023-02-12T15:43:04.981Z,64.75
2023-02-12T15:45:34.547Z,64.37
2023-02-12T15:48:13.966Z,64.60
2023-02-12T15:50:50.034Z,64.85
2023-02-12T15:53:17.507Z,63.63
2023-02-12T15:55:46.952Z,63.38
2023-02-12T15:58:38.184Z,63.89
2023-02-12T16:01:06.693Z,64.34
2023-02-12T16:03:36.875Z,63.91
2023-02-12T16:06:11.201Z,64.75
2023-02-12T16:08:42.112Z,65.00
2023-02-12T16:11:16.599Z,64.75
2023-02-12T16:13:49.995Z,64.09
2023-02-12T16:16:19.735Z,64.17
2023-02-12T16:18:47.364Z,64.23
2023-02-12T16:21:20.339Z,64.08
2023-02-12T16:23:50.298Z,64.42
2023-02-12T16:26:27.033Z,63.94
2023-02-12T16:28:56.698Z,63.23
2023-02-12T16:31:26.478Z,62.20
2023-02-12T16:33:56.730Z,62.04
2023-02-12T16:36:26.226Z,61.89
2023-02-12T16:38:56.611Z,63.27
2023-02-12T16:41:31.182Z,64.16
2023-02-12T16:44:01.298Z,63.94
2023-02-12T16:46:28.968Z,63.25
2023-02-12T16:48:57.632Z,63.87
2023-02-12T16:51:30.648Z,63.91
2023-02-12T16:54:05.030Z,64.41
2023-02-12T16:56:38.543Z,64.61
2023-02-12T16:59:06.032Z,64.33
2023-02-12T17:01:35.641Z,63.56
2023-02-12T17:04:08.524Z,63.66
2023-02-12T17:06:35.886Z,63.74
2023-02-12T17:09:03.216Z,63.74
2023-02-12T17:11:30.507Z,63.41
2023-02-12T17:13:57.841Z,63.48
2023-02-12T17:16:30.868Z,63.03
2023-02-12T17:19:00.063Z,63.06
2023-02-12T17:21:38.466Z,63.05
2023-02-12T17:24:21.833Z,63.24
2023-02-12T17:26:50.578Z,63.12
2023-02-12T17:29:18.831Z,63.00
2023-02-12T17:31:46.561Z,63.23
2023-02-12T17:34:14.695Z,63.64
2023-02-12T17:36:42.817Z,63.55
2023-02-12T17:39:12.700Z,63.44
2023-02-12T17:41:40.824Z,63.65
2023-02-12T17:44:08.240Z,64.13
2023-02-12T17:46:35.655Z,63.99
2023-02-12T17:49:03.731Z,63.89
2023-02-12T17:51:31.130Z,64.44
2023-02-12T17:53:58.562Z,64.57
2023-02-12T17:56:27.008Z,65.02
2023-02-12T17:58:54.364Z,65.73
2023-02-12T18:01:23.395Z,66.33
2023-02-12T18:03:53.760Z,66.94
2023-02-12T18:06:24.681Z,67.30
2023-02-12T18:08:52.349Z,68.06
2023-02-12T18:11:20.294Z,69.07
2023-02-12T18:13:47.956Z,69.30
2023-02-12T18:16:15.636Z,68.54
2023-02-12T18:18:43.082Z,68.22
2023-02-12T18:21:12.365Z,68.15
2023-02-12T18:23:40.069Z,67.74
2023-02-12T18:26:09.283Z,67.63
2023-02-12T18:28:37.466Z,67.92
2023-02-12T18:31:05.213Z,67.70
2023-02-12T18:33:33.057Z,67.79
2023-02-12T18:36:21.255Z,67.91
2023-02-12T18:38:50.475Z,67.94
2023-02-12T18:41:21.257Z,68.18
2023-02-12T18:43:48.883Z,68.26
2023-02-12T18:46:19.114Z,68.32
2023-02-12T18:48:46.533Z,68.20
2023-02-12T18:51:15.667Z,68.82
2023-02-12T18:53:43.135Z,68.94
2023-02-12T18:56:11.590Z,69.01
2023-02-12T18:58:39.043Z,69.53
2023-02-12T19:01:17.887Z,69.59
2023-02-12T19:03:46.617Z,69.74
2023-02-12T19:06:13.961Z,69.60
2023-02-12T19:08:41.472Z,70.41
2023-02-12T19:11:10.147Z,71.88
2023-02-12T19:13:38.793Z,72.11
2023-02-12T19:16:08.408Z,71.97
2023-02-12T19:18:35.736Z,71.09
2023-02-12T19:21:11.690Z,70.75
2023-02-12T19:23:40.482Z,69.87
2023-02-12T19:26:17.911Z,68.69
2023-02-12T19:28:45.228Z,68.80
2023-02-12T19:31:24.315Z,67.87
2023-02-12T19:33:56.049Z,67.56
2023-02-12T19:36:24.199Z,67.37
2023-02-12T19:38:51.578Z,67.35
2023-02-12T19:41:21.475Z,67.95
2023-02-12T19:43:52.500Z,67.05
2023-02-12T19:46:20.472Z,66.84
2023-02-12T19:48:48.671Z,68.36
2023-02-12T19:51:18.156Z,68.74
2023-02-12T19:53:46.855Z,68.79
2023-02-12T19:56:15.759Z,69.14
2023-02-12T19:58:43.946Z,69.72
2023-02-12T20:01:17.164Z,69.46
2023-02-12T20:03:46.638Z,69.70
2023-02-12T20:06:18.352Z,69.43
2023-02-12T20:08:45.644Z,69.21
2023-02-12T20:11:18.989Z,68.88
2023-02-12T20:13:46.976Z,67.82
2023-02-12T20:16:19.748Z,68.55
2023-02-12T20:18:48.976Z,68.35
2023-02-12T20:21:22.641Z,68.93
2023-02-12T20:23:50.487Z,68.90
2023-02-12T20:26:19.712Z,69.72
2023-02-12T20:28:49.056Z,69.92
2023-02-12T20:31:24.915Z,69.84
2023-02-12T20:34:00.451Z,69.90
2023-02-12T20:36:32.133Z,69.60
2023-02-12T20:39:02.328Z,69.15
2023-02-12T20:41:29.876Z,69.08
2023-02-12T20:43:59.950Z,69.06
2023-02-12T20:46:27.337Z,69.47
2023-02-12T20:48:55.432Z,69.38
2023-02-12T20:51:25.794Z,69.50
2023-02-12T20:53:55.820Z,68.93
2023-02-12T20:56:26.208Z,68.92
2023-02-12T20:58:55.737Z,68.80
2023-02-12T21:01:26.324Z,68.80
2023-02-12T21:03:54.784Z,69.41
2023-02-12T21:06:23.435Z,69.17
2023-02-12T21:08:51.383Z,69.28
2023-02-12T21:11:22.285Z,69.08
2023-02-12T21:14:02.588Z,69.33
2023-02-12T21:16:35.885Z,69.00
2023-02-12T21:19:05.161Z,68.10
2023-02-12T21:21:35.361Z,67.96
2023-02-12T21:24:04.630Z,68.49
2023-02-12T21:26:33.219Z,69.29
2023-02-12T21:29:01.714Z,69.37
2023-02-12T21:31:37.373Z,68.28
2023-02-12T21:34:06.563Z,67.67
2023-02-12T21:36:37.421Z,67.70
2023-02-12T21:39:06.929Z,68.66
2023-02-12T21:41:37.280Z,69.24
2023-02-12T21:44:07.672Z,69.89
2023-02-12T21:46:36.208Z,70.08
2023-02-12T21:49:04.359Z,69.45
2023-02-12T21:51:33.143Z,70.51
2023-02-12T21:54:02.765Z,69.98
2023-02-12T21:56:30.663Z,68.90
2023-02-12T21:58:59.544Z,70.29
2023-02-12T22:01:29.561Z,70.73
2023-02-12T22:03:57.017Z,70.57
2023-02-12T22:06:24.970Z,70.60
2023-02-12T22:08:53.403Z,69.76
2023-02-12T22:11:21.641Z,70.49
2023-02-12T22:13:49.342Z,69.70
2023-02-12T22:16:21.853Z,69.96
2023-02-12T22:18:52.429Z,70.15
2023-02-12T22:21:21.897Z,69.51
2023-02-12T22:23:49.664Z,68.67
2023-02-12T22:26:21.831Z,68.98
2023-02-12T22:28:53.701Z,68.64
2023-02-12T22:31:24.221Z,68.89
2023-02-12T22:33:54.090Z,68.88
2023-02-12T22:36:22.030Z,68.72
2023-02-12T22:38:49.342Z,69.00
2023-02-12T22:41:16.831Z,68.49
2023-02-12T22:43:44.500Z,68.80
2023-02-12T22:46:12.966Z,69.25
2023-02-12T22:48:41.015Z,70.47
2023-02-12T22:51:22.600Z,70.07
2023-02-12T22:53:50.193Z,69.80
2023-02-12T22:56:18.087Z,70.63
2023-02-12T22:58:46.086Z,70.90
2023-02-12T23:01:18.486Z,71.33
2023-02-12T23:03:46.017Z,71.05
2023-02-12T23:06:15.987Z,70.33
2023-02-12T23:08:43.924Z,70.54
2023-02-12T23:11:12.310Z,71.00
2023-02-12T23:13:39.812Z,72.31
2023-02-12T23:16:07.233Z,72.37
2023-02-12T23:18:34.699Z,71.82
2023-02-12T23:21:02.474Z,71.68
2023-02-12T23:23:29.789Z,72.25
2023-02-12T23:25:57.040Z,71.71
2023-02-12T23:28:24.377Z,72.21
2023-02-12T23:30:52.262Z,72.47
2023-02-12T23:33:19.885Z,72.94
2023-02-12T23:35:47.897Z,74.31
2023-02-12T23:38:15.583Z,74.02
2023-02-12T23:40:43.057Z,73.48
2023-02-12T23:43:10.734Z,73.50
2023-02-12T23:45:38.277Z,73.90
2023-02-12T23:48:05.720Z,73.85
2023-02-12T23:50:33.126Z,74.42
2023-02-12T23:53:00.365Z,74.02
2023-02-12T23:55:27.749Z,74.98
2023-02-12T23:57:55.399Z,76.14
